createdAt,value
2017-07-16T00:02:13.009Z,16.03
2017-07-16T00:04:41.372Z,15.91
2017-07-16T00:07:09.727Z,15.95
2017-07-16T00:09:38.076Z,15.78
2017-07-16T00:12:06.445Z,15.89
2017-07-16T00:14:34.795Z,15.79
2017-07-16T00:17:03.155Z,15.70
2017-07-16T00:19:31.816Z,15.71
2017-07-16T00:22:00.569Z,15.69
2017-07-16T00:24:28.911Z,15.61
2017-07-16T00:26:57.419Z,15.60
2017-07-16T00:29:25.772Z,15.61
2017-07-16T00:31:54.120Z,15.61
2017-07-16T00:34:22.872Z,15.52
2017-07-16T00:36:51.218Z,15.45
2017-07-16T00:39:19.575Z,15.46
2017-07-16T00:41:48.320Z,15.52
2017-07-16T00:44:16.676Z,15.46
2017-07-16T00:46:45.023Z,15.47
2017-07-16T00:49:13.782Z,15.53
2017-07-16T00:51:42.151Z,15.51
2017-07-16T00:54:10.618Z,15.38
2017-07-16T00:56:38.971Z,15.22
2017-07-16T00:59:07.315Z,15.30
2017-07-16T01:01:35.667Z,15.26
2017-07-16T01:04:04.031Z,15.35
2017-07-16T01:06:32.392Z,15.24
2017-07-16T01:09:00.742Z,15.33
2017-07-16T01:11:29.491Z,15.47
2017-07-16T01:13:57.841Z,15.44
2017-07-16T01:16:26.198Z,15.47
2017-07-16T01:18:55.027Z,15.20
2017-07-16T01:21:23.415Z,15.14
2017-07-16T01:23:51.760Z,15.10
2017-07-16T01:26:20.472Z,15.10
2017-07-16T01:28:48.826Z,15.14
2017-07-16T01:31:17.179Z,15.13
2017-07-16T01:33:45.535Z,15.22
2017-07-16T01:36:14.115Z,15.10
2017-07-16T01:38:42.470Z,15.10
2017-07-16T01:41:10.815Z,14.96
2017-07-16T01:43:39.568Z,15.10
2017-07-16T01:46:08.175Z,15.13
2017-07-16T01:48:36.933Z,15.04
2017-07-16T01:51:05.284Z,15.30
2017-07-16T01:53:33.771Z,15.27
2017-07-16T01:56:02.114Z,15.31
2017-07-16T01:58:31.051Z,15.25
2017-07-16T02:00:59.399Z,15.03
2017-07-16T02:03:27.754Z,14.96
2017-07-16T02:05:56.507Z,14.91
2017-07-16T02:08:26.455Z,14.86
2017-07-16T02:10:55.209Z,14.90
2017-07-16T02:13:23.559Z,14.71
2017-07-16T02:15:51.912Z,14.74
2017-07-16T02:18:20.665Z,14.65
2017-07-16T02:20:49.128Z,14.59
2017-07-16T02:23:17.474Z,14.65
2017-07-16T02:25:45.836Z,14.61
2017-07-16T02:28:14.579Z,14.50
2017-07-16T02:30:43.055Z,14.69
2017-07-16T02:33:11.402Z,14.61
2017-07-16T02:35:39.758Z,14.46
2017-07-16T02:38:08.510Z,14.63
2017-07-16T02:40:37.274Z,14.35
2017-07-16T02:43:05.635Z,14.34
2017-07-16T02:45:33.990Z,14.59
2017-07-16T02:48:02.747Z,14.65
2017-07-16T02:50:31.116Z,14.58
2017-07-16T02:52:59.479Z,14.49
2017-07-16T02:55:27.823Z,14.36
2017-07-16T02:57:56.572Z,14.40
2017-07-16T03:00:24.919Z,14.65
2017-07-16T03:02:53.419Z,14.74
2017-07-16T03:05:21.767Z,14.74
2017-07-16T03:07:50.111Z,14.69
2017-07-16T03:10:18.466Z,14.63
2017-07-16T03:12:46.822Z,14.56
2017-07-16T03:15:15.174Z,14.47
2017-07-16T03:17:43.915Z,14.61
2017-07-16T03:20:12.271Z,14.62
2017-07-16T03:22:40.618Z,14.78
2017-07-16T03:25:27.120Z,14.81
2017-07-16T03:27:55.860Z,14.88
2017-07-16T03:30:24.239Z,14.95
2017-07-16T03:32:52.588Z,14.85
2017-07-16T03:35:21.191Z,14.91
2017-07-16T03:37:49.550Z,14.98
2017-07-16T03:40:18.223Z,15.03
2017-07-16T03:42:46.963Z,14.98
2017-07-16T03:45:15.315Z,15.05
2017-07-16T03:47:43.671Z,15.14
2017-07-16T03:50:12.418Z,15.26
2017-07-16T03:52:40.772Z,15.44
2017-07-16T03:55:09.119Z,15.51
2017-07-16T03:57:37.478Z,15.66
2017-07-16T04:00:05.822Z,15.66
2017-07-16T04:02:34.179Z,15.70
2017-07-16T04:05:02.522Z,15.78
2017-07-16T04:07:31.275Z,16.03
2017-07-16T04:09:59.620Z,17.99
2017-07-16T04:12:28.107Z,22.76
2017-07-16T04:14:56.450Z,24.25
2017-07-16T04:17:25.287Z,25.53
2017-07-16T04:19:53.645Z,26.43
2017-07-16T04:22:21.990Z,26.37
2017-07-16T04:24:50.351Z,27.08
2017-07-16T04:27:18.688Z,27.54
2017-07-16T04:29:47.079Z,28.29
2017-07-16T04:32:15.477Z,27.88
2017-07-16T04:34:44.108Z,29.00
2017-07-16T04:37:12.460Z,29.46
2017-07-16T04:39:40.810Z,28.43
2017-07-16T04:42:09.147Z,28.40
2017-07-16T04:44:38.214Z,28.77
2017-07-16T04:47:06.575Z,29.37
2017-07-16T04:49:34.919Z,29.74
2017-07-16T04:52:03.267Z,29.99
2017-07-16T04:54:32.011Z,29.63
2017-07-16T04:57:00.358Z,31.87
2017-07-16T04:59:28.712Z,30.31
2017-07-16T05:01:57.158Z,30.91
2017-07-16T05:04:25.499Z,31.94
2017-07-16T05:06:53.860Z,32.62
2017-07-16T05:09:22.197Z,30.80
2017-07-16T05:11:50.543Z,31.74
2017-07-16T05:14:18.881Z,31.81
2017-07-16T05:16:47.226Z,32.35
2017-07-16T05:19:15.588Z,31.86
2017-07-16T05:21:43.927Z,33.12
2017-07-16T05:24:12.270Z,33.60
2017-07-16T05:26:40.607Z,33.91
2017-07-16T05:29:08.972Z,35.30
2017-07-16T05:31:37.720Z,35.41
2017-07-16T05:34:06.081Z,35.23
2017-07-16T05:36:34.431Z,34.29
2017-07-16T05:39:02.789Z,33.85
2017-07-16T05:41:31.560Z,33.53
2017-07-16T05:43:59.916Z,35.25
2017-07-16T05:46:28.254Z,35.65
2017-07-16T05:48:56.684Z,36.74
2017-07-16T05:51:25.033Z,37.78
2017-07-16T05:53:53.951Z,37.39
2017-07-16T05:56:22.315Z,38.09
2017-07-16T05:58:50.685Z,37.67
2017-07-16T06:01:19.035Z,37.02
2017-07-16T06:03:47.773Z,37.81
2017-07-16T06:06:16.124Z,34.51
2017-07-16T06:08:44.472Z,34.31
2017-07-16T06:11:13.215Z,33.25
2017-07-16T06:13:41.563Z,30.93
2017-07-16T06:16:10.067Z,29.50
2017-07-16T06:18:38.411Z,29.26
2017-07-16T06:21:07.147Z,28.68
2017-07-16T06:23:35.496Z,28.54
2017-07-16T06:26:03.834Z,28.51
2017-07-16T06:28:32.179Z,28.53
2017-07-16T06:31:00.533Z,28.19
2017-07-16T06:33:28.891Z,28.69
2017-07-16T06:35:57.244Z,28.28
2017-07-16T06:38:25.795Z,28.03
2017-07-16T06:40:54.429Z,28.96
2017-07-16T06:43:22.778Z,28.98
2017-07-16T06:45:51.136Z,28.44
2017-07-16T06:48:19.484Z,28.39
2017-07-16T06:50:47.845Z,27.53
2017-07-16T06:53:16.593Z,27.76
2017-07-16T06:55:44.961Z,28.12
2017-07-16T06:58:13.299Z,27.90
2017-07-16T07:00:41.949Z,28.73
2017-07-16T07:03:10.679Z,27.42
2017-07-16T07:05:39.110Z,28.08
2017-07-16T07:08:07.477Z,28.36
2017-07-16T07:10:35.840Z,28.14
2017-07-16T07:13:04.198Z,28.82
2017-07-16T07:15:32.940Z,30.94
2017-07-16T07:18:01.294Z,32.41
2017-07-16T07:20:29.649Z,32.62
2017-07-16T07:22:58.007Z,32.78
2017-07-16T07:25:26.747Z,33.41
2017-07-16T07:27:55.240Z,33.92
2017-07-16T07:30:23.596Z,32.53
2017-07-16T07:32:51.948Z,32.67
2017-07-16T07:35:20.774Z,32.30
2017-07-16T07:37:49.120Z,32.48
2017-07-16T07:40:17.487Z,31.66
2017-07-16T07:42:46.249Z,32.85
2017-07-16T07:45:14.603Z,33.10
2017-07-16T07:47:42.962Z,33.07
2017-07-16T07:50:11.310Z,33.47
2017-07-16T07:52:40.046Z,33.12
2017-07-16T07:55:08.620Z,34.14
2017-07-16T07:57:36.963Z,34.10
2017-07-16T08:00:05.703Z,34.62
2017-07-16T08:02:34.062Z,33.83
2017-07-16T08:05:02.417Z,34.76
2017-07-16T08:07:31.173Z,33.53
2017-07-16T08:09:59.512Z,33.41
2017-07-16T08:12:27.872Z,33.57
2017-07-16T08:14:56.210Z,33.88
2017-07-16T08:17:24.573Z,33.63
2017-07-16T08:19:52.921Z,35.27
2017-07-16T08:22:21.270Z,34.99
2017-07-16T08:24:50.023Z,36.20
2017-07-16T08:27:18.359Z,34.19
2017-07-16T08:29:46.712Z,33.94
2017-07-16T08:32:15.452Z,33.05
2017-07-16T08:34:43.820Z,33.29
2017-07-16T08:37:12.160Z,33.73
2017-07-16T08:39:41.103Z,34.00
2017-07-16T08:42:09.457Z,32.87
2017-07-16T08:44:37.813Z,33.27
2017-07-16T08:47:06.574Z,32.70
2017-07-16T08:49:34.916Z,32.51
2017-07-16T08:52:03.276Z,32.52
2017-07-16T08:54:31.709Z,32.98
2017-07-16T08:57:00.067Z,35.00
2017-07-16T08:59:28.416Z,34.87
2017-07-16T09:01:56.942Z,35.09
2017-07-16T09:04:25.297Z,31.98
2017-07-16T09:06:53.649Z,33.48
2017-07-16T09:09:22.405Z,32.84
2017-07-16T09:11:50.751Z,33.42
2017-07-16T09:14:19.111Z,34.89
2017-07-16T09:16:47.452Z,34.41
2017-07-16T09:19:15.805Z,33.35
2017-07-16T09:21:44.171Z,32.80
2017-07-16T09:24:12.591Z,31.68
2017-07-16T09:26:40.943Z,30.65
2017-07-16T09:29:09.321Z,31.76
2017-07-16T09:31:37.677Z,31.36
2017-07-16T09:34:06.027Z,29.52
2017-07-16T09:36:34.385Z,30.08
2017-07-16T09:39:02.806Z,30.21
2017-07-16T09:41:31.461Z,29.18
2017-07-16T09:44:00.207Z,29.55
2017-07-16T09:46:28.899Z,30.85
2017-07-16T09:48:57.254Z,31.20
2017-07-16T09:51:25.606Z,31.66
2017-07-16T09:53:53.977Z,31.58
2017-07-16T09:56:22.335Z,32.49
2017-07-16T09:58:50.684Z,31.72
2017-07-16T10:01:19.181Z,30.72
2017-07-16T10:03:47.537Z,30.34
2017-07-16T10:06:15.899Z,30.59
2017-07-16T10:08:44.251Z,30.09
2017-07-16T10:11:13.013Z,29.80
2017-07-16T10:13:41.377Z,29.37
2017-07-16T10:16:09.722Z,28.63
2017-07-16T10:18:38.067Z,27.90
2017-07-16T10:21:06.422Z,28.40
2017-07-16T10:23:34.788Z,28.20
2017-07-16T10:26:03.136Z,28.60
2017-07-16T10:28:31.662Z,29.21
2017-07-16T10:31:00.052Z,28.57
2017-07-16T10:33:28.402Z,29.03
2017-07-16T10:35:56.765Z,29.16
2017-07-16T10:38:25.425Z,29.59
2017-07-16T10:40:54.181Z,30.27
2017-07-16T10:43:22.534Z,31.02
2017-07-16T10:45:50.896Z,31.25
2017-07-16T10:48:19.255Z,30.94
2017-07-16T10:50:47.627Z,32.76
2017-07-16T10:53:16.387Z,31.91
2017-07-16T10:55:44.742Z,30.69
2017-07-16T10:58:13.101Z,31.38
2017-07-16T11:00:41.716Z,31.01
2017-07-16T11:03:10.461Z,30.34
2017-07-16T11:05:38.821Z,30.06
2017-07-16T11:08:07.189Z,30.19
2017-07-16T11:10:35.539Z,29.64
2017-07-16T11:13:03.897Z,29.94
2017-07-16T11:15:32.261Z,29.90
2017-07-16T11:18:00.613Z,29.86
2017-07-16T11:20:28.973Z,29.49
2017-07-16T11:22:57.334Z,29.91
2017-07-16T11:25:25.672Z,30.01
2017-07-16T11:27:54.401Z,29.42
2017-07-16T11:30:22.858Z,29.45
2017-07-16T11:32:51.208Z,30.10
2017-07-16T11:35:19.568Z,29.23
2017-07-16T11:37:47.907Z,28.04
2017-07-16T11:40:16.291Z,29.02
2017-07-16T11:42:44.676Z,28.54
2017-07-16T11:45:13.037Z,28.36
2017-07-16T11:47:41.384Z,28.79
2017-07-16T11:50:10.141Z,28.58
2017-07-16T11:52:38.507Z,28.96
2017-07-16T11:55:06.869Z,29.31
2017-07-16T11:57:35.215Z,28.73
2017-07-16T12:00:03.977Z,28.47
2017-07-16T12:02:32.347Z,28.03
2017-07-16T12:05:01.020Z,27.20
2017-07-16T12:07:29.362Z,27.05
2017-07-16T12:09:57.704Z,26.90
2017-07-16T12:12:26.167Z,26.63
2017-07-16T12:14:54.521Z,26.42
2017-07-16T12:17:22.890Z,26.02
2017-07-16T12:19:51.235Z,26.04
2017-07-16T12:22:20.009Z,26.36
2017-07-16T12:24:48.382Z,26.81
2017-07-16T12:27:16.779Z,27.14
2017-07-16T12:29:45.943Z,27.12
2017-07-16T12:32:14.452Z,27.24
2017-07-16T12:34:43.687Z,26.62
2017-07-16T12:37:12.293Z,26.87
2017-07-16T12:39:40.731Z,27.38
2017-07-16T12:42:09.919Z,27.93
2017-07-16T12:44:38.309Z,28.16
2017-07-16T12:47:06.685Z,28.21
2017-07-16T12:49:35.128Z,27.99
2017-07-16T12:52:03.474Z,27.88
2017-07-16T12:54:31.849Z,27.98
2017-07-16T12:57:00.195Z,27.93
2017-07-16T12:59:28.757Z,27.92
2017-07-16T13:01:57.105Z,27.87
2017-07-16T13:04:25.876Z,27.45
2017-07-16T13:06:54.245Z,27.48
2017-07-16T13:09:22.995Z,27.31
2017-07-16T13:11:51.355Z,27.07
2017-07-16T13:14:19.708Z,27.23
2017-07-16T13:16:48.073Z,27.38
2017-07-16T13:19:16.819Z,27.14
2017-07-16T13:21:46.169Z,27.33
2017-07-16T13:24:14.661Z,27.38
2017-07-16T13:26:43.069Z,27.41
2017-07-16T13:29:11.447Z,27.69
2017-07-16T13:31:40.089Z,27.87
2017-07-16T13:34:08.848Z,27.86
2017-07-16T13:36:37.408Z,28.01
2017-07-16T13:39:05.769Z,28.13
2017-07-16T13:41:34.180Z,28.44
2017-07-16T13:44:02.536Z,28.15
2017-07-16T13:46:30.885Z,28.55
2017-07-16T13:48:59.667Z,28.13
2017-07-16T13:51:28.015Z,28.05
2017-07-16T13:53:56.372Z,27.60
2017-07-16T13:56:24.729Z,27.83
2017-07-16T13:58:53.097Z,27.30
2017-07-16T14:01:21.461Z,27.82
2017-07-16T14:03:50.225Z,27.20
2017-07-16T14:06:18.589Z,27.16
2017-07-16T14:08:46.945Z,27.44
2017-07-16T14:11:15.295Z,27.16
2017-07-16T14:13:44.428Z,26.87
2017-07-16T14:16:12.777Z,26.85
2017-07-16T14:18:41.533Z,26.65
2017-07-16T14:21:09.896Z,27.02
2017-07-16T14:23:38.275Z,27.19
2017-07-16T14:26:06.652Z,27.06
2017-07-16T14:28:34.995Z,26.89
2017-07-16T14:31:03.356Z,26.59
2017-07-16T14:33:32.105Z,26.52
2017-07-16T14:36:00.483Z,26.50
2017-07-16T14:38:28.836Z,26.45
2017-07-16T14:40:57.408Z,26.40
2017-07-16T14:43:25.778Z,26.50
2017-07-16T14:45:54.122Z,26.65
2017-07-16T14:48:22.486Z,26.54
2017-07-16T14:50:50.828Z,26.08
2017-07-16T14:53:19.193Z,25.62
2017-07-16T14:55:47.553Z,24.97
2017-07-16T14:58:16.323Z,24.53
2017-07-16T15:00:44.684Z,24.26
2017-07-16T15:03:13.259Z,24.20
2017-07-16T15:05:41.622Z,24.07
2017-07-16T15:08:09.971Z,24.14
2017-07-16T15:10:38.316Z,24.15
2017-07-16T15:13:06.994Z,24.25
2017-07-16T15:15:35.339Z,24.37
2017-07-16T15:18:03.691Z,24.42
2017-07-16T15:20:32.454Z,24.26
2017-07-16T15:23:00.817Z,24.45
2017-07-16T15:25:29.182Z,24.29
2017-07-16T15:27:57.819Z,24.18
2017-07-16T15:30:26.585Z,24.06
2017-07-16T15:32:54.921Z,24.15
2017-07-16T15:35:23.277Z,24.09
2017-07-16T15:37:52.026Z,24.15
2017-07-16T15:40:20.598Z,23.66
2017-07-16T15:42:48.947Z,23.47
2017-07-16T15:45:17.302Z,23.18
2017-07-16T15:47:46.057Z,22.70
2017-07-16T15:50:14.421Z,22.81
2017-07-16T15:52:42.777Z,22.95
2017-07-16T15:55:11.129Z,22.88
2017-07-16T15:57:40.077Z,22.87
2017-07-16T16:00:08.424Z,23.16
2017-07-16T16:02:36.767Z,23.17
2017-07-16T16:05:05.141Z,23.33
2017-07-16T16:07:33.492Z,23.48
2017-07-16T16:10:01.867Z,23.77
2017-07-16T16:12:30.216Z,23.66
2017-07-16T16:14:58.567Z,23.57
2017-07-16T16:17:27.343Z,23.43
2017-07-16T16:19:55.860Z,23.44
2017-07-16T16:22:24.199Z,23.27
2017-07-16T16:24:52.557Z,23.06
2017-07-16T16:27:20.934Z,23.19
2017-07-16T16:29:49.304Z,23.16
2017-07-16T16:32:17.656Z,23.24
2017-07-16T16:34:46.007Z,23.26
2017-07-16T16:37:14.561Z,23.27
2017-07-16T16:39:42.898Z,23.22
2017-07-16T16:42:11.249Z,23.21
2017-07-16T16:44:39.621Z,23.02
2017-07-16T16:47:07.969Z,23.13
2017-07-16T16:49:36.325Z,23.01
2017-07-16T16:52:04.673Z,22.96
2017-07-16T16:54:33.425Z,22.89
2017-07-16T16:57:01.784Z,22.88
2017-07-16T16:59:30.298Z,22.88
2017-07-16T17:01:58.642Z,22.97
2017-07-16T17:04:27.011Z,22.97
2017-07-16T17:06:55.363Z,22.82
2017-07-16T17:09:24.117Z,22.90
2017-07-16T17:11:52.485Z,22.95
2017-07-16T17:14:20.837Z,22.84
2017-07-16T17:16:49.201Z,22.67
2017-07-16T17:19:18.177Z,22.65
2017-07-16T17:21:46.927Z,22.64
2017-07-16T17:24:15.276Z,22.68
2017-07-16T17:26:43.639Z,22.58
2017-07-16T17:29:12.388Z,22.20
2017-07-16T17:31:40.731Z,22.01
2017-07-16T17:34:09.106Z,21.88
2017-07-16T17:36:37.483Z,21.57
2017-07-16T17:39:06.103Z,21.26
2017-07-16T17:41:34.448Z,21.18
2017-07-16T17:44:02.813Z,20.96
2017-07-16T17:46:31.571Z,20.74
2017-07-16T17:49:00.170Z,20.57
2017-07-16T17:51:28.917Z,20.73
2017-07-16T17:53:57.274Z,20.65
2017-07-16T17:56:25.887Z,20.66
2017-07-16T17:58:54.240Z,20.58
2017-07-16T18:01:22.597Z,20.77
2017-07-16T18:03:50.960Z,20.78
2017-07-16T18:06:19.714Z,20.78
2017-07-16T18:08:48.068Z,20.76
2017-07-16T18:11:16.416Z,20.89
2017-07-16T18:13:44.835Z,20.88
2017-07-16T18:16:13.193Z,20.66
2017-07-16T18:18:41.665Z,20.80
2017-07-16T18:21:10.089Z,20.91
2017-07-16T18:23:38.663Z,20.86
2017-07-16T18:26:07.026Z,20.87
2017-07-16T18:28:35.384Z,20.87
2017-07-16T18:31:04.144Z,20.80
2017-07-16T18:33:32.498Z,20.87
2017-07-16T18:48:05.530Z,20.87
2017-07-16T18:50:34.854Z,20.94
2017-07-16T18:53:04.560Z,20.87
2017-07-16T18:55:34.724Z,20.83
2017-07-16T18:58:04.754Z,20.78
2017-07-16T19:03:35.493Z,20.67
2017-07-16T19:06:04.148Z,20.63
2017-07-16T19:08:34.083Z,20.54
2017-07-16T19:11:02.488Z,20.57
2017-07-16T19:13:30.838Z,20.52
2017-07-16T19:15:59.207Z,20.50
2017-07-16T19:18:27.603Z,20.58
2017-07-16T19:20:55.972Z,20.50
2017-07-16T19:23:24.387Z,20.59
2017-07-16T19:25:52.731Z,20.59
2017-07-16T19:28:21.505Z,20.63
2017-07-16T19:30:50.440Z,20.62
2017-07-16T19:33:19.611Z,20.53
2017-07-16T19:35:48.353Z,20.52
2017-07-16T19:38:17.181Z,20.54
2017-07-16T19:40:45.572Z,20.45
2017-07-16T19:43:13.938Z,20.41
2017-07-16T19:45:42.289Z,20.40
2017-07-16T19:48:11.789Z,20.45
2017-07-16T19:50:40.175Z,20.36
2017-07-16T19:53:08.523Z,20.35
2017-07-16T19:55:36.898Z,20.35
2017-07-16T19:58:05.251Z,20.35
2017-07-16T20:00:33.603Z,20.26
2017-07-16T20:03:01.943Z,20.34
2017-07-16T20:05:30.306Z,20.27
2017-07-16T20:07:58.647Z,20.30
2017-07-16T20:10:27.358Z,20.21
2017-07-16T20:12:55.808Z,20.06
2017-07-16T20:15:24.191Z,20.13
2017-07-16T20:17:52.563Z,20.13
2017-07-16T20:20:20.919Z,20.09
2017-07-16T20:22:49.280Z,19.93
2017-07-16T20:25:17.618Z,19.86
2017-07-16T20:27:45.982Z,19.87
2017-07-16T20:30:14.329Z,19.79
2017-07-16T20:32:42.681Z,19.76
2017-07-16T20:35:11.035Z,19.85
2017-07-16T20:37:39.645Z,19.83
2017-07-16T20:40:08.124Z,19.74
2017-07-16T20:42:36.499Z,19.73
2017-07-16T20:45:04.856Z,19.74
2017-07-16T20:47:33.199Z,19.67
2017-07-16T20:50:01.961Z,19.62
2017-07-16T20:52:30.565Z,19.59
2017-07-16T20:54:58.922Z,19.63
2017-07-16T20:57:27.541Z,19.60
2017-07-16T20:59:56.304Z,19.51
2017-07-16T21:02:24.665Z,19.63
2017-07-16T21:04:53.172Z,19.60
2017-07-16T21:07:21.526Z,19.61
2017-07-16T21:09:49.881Z,19.59
2017-07-16T21:12:18.297Z,19.52
2017-07-16T21:14:46.642Z,19.50
2017-07-16T21:17:15.157Z,19.61
2017-07-16T21:19:43.521Z,19.56
2017-07-16T21:22:11.866Z,19.53
2017-07-16T21:24:40.220Z,19.53
2017-07-16T21:27:08.581Z,19.55
2017-07-16T21:29:37.252Z,19.57
2017-07-16T21:32:05.595Z,19.63
2017-07-16T21:34:33.940Z,19.63
2017-07-16T21:37:02.292Z,19.48
2017-07-16T21:39:30.649Z,19.52
2017-07-16T21:41:59.380Z,19.51
2017-07-16T21:44:27.734Z,19.55
2017-07-16T21:46:56.090Z,19.53
2017-07-16T21:49:24.449Z,19.44
2017-07-16T21:51:52.809Z,19.49
2017-07-16T21:54:21.571Z,19.47
2017-07-16T21:56:49.907Z,19.54
2017-07-16T21:59:18.264Z,19.53
2017-07-16T22:01:47.012Z,19.54
2017-07-16T22:04:15.372Z,19.55
2017-07-16T22:06:43.730Z,19.41
2017-07-16T22:09:12.457Z,19.43
2017-07-16T22:11:40.800Z,19.38
2017-07-16T22:14:09.147Z,19.11
2017-07-16T22:16:37.499Z,18.61
2017-07-16T22:19:05.861Z,18.35
2017-07-16T22:21:34.407Z,18.35
2017-07-16T22:24:03.151Z,18.37
2017-07-16T22:26:31.499Z,18.45
2017-07-16T22:28:59.864Z,18.44
2017-07-16T22:31:28.219Z,18.49
2017-07-16T22:33:56.977Z,18.54
2017-07-16T22:36:25.352Z,18.53
2017-07-16T22:38:53.717Z,18.54
2017-07-16T22:41:22.066Z,18.58
2017-07-16T22:43:50.435Z,18.60
2017-07-16T22:46:19.190Z,18.61
2017-07-16T22:48:47.756Z,18.62
2017-07-16T22:51:16.387Z,18.67
2017-07-16T22:53:45.132Z,18.68
2017-07-16T22:56:13.494Z,18.67
2017-07-16T22:58:41.869Z,18.74
2017-07-16T23:01:10.477Z,18.80
2017-07-16T23:03:38.835Z,18.76
2017-07-16T23:06:07.192Z,18.77
2017-07-16T23:08:35.551Z,18.72
2017-07-16T23:11:03.912Z,18.75
2017-07-16T23:13:32.277Z,18.71
2017-07-16T23:16:00.636Z,18.60
2017-07-16T23:18:29.013Z,18.60
2017-07-16T23:20:57.415Z,18.59
2017-07-16T23:23:25.785Z,18.32
2017-07-16T23:25:54.130Z,18.30
2017-07-16T23:28:22.480Z,18.37
2017-07-16T23:30:50.864Z,18.36
2017-07-16T23:33:19.675Z,18.34
2017-07-16T23:35:48.032Z,18.37
2017-07-16T23:38:16.382Z,18.42
2017-07-16T23:40:44.751Z,18.51
2017-07-16T23:43:13.115Z,18.53
2017-07-16T23:45:41.466Z,18.57
2017-07-16T23:48:10.220Z,18.66
2017-07-16T23:50:38.726Z,18.67
2017-07-16T23:53:07.485Z,18.73
2017-07-16T23:55:35.852Z,18.78
2017-07-16T23:58:04.216Z,18.83
